Kostomuksha, Russia
Current Conditions -  °F | °C
As of 3:20 AM on Monday 22 Dec 2014 (Local Time) from EFKI Reporting Station
Few Clouds Few Clouds  
Wind Chill: 16°   Ceiling: Unl
Heat Index: 16°   Visibility: 6mi
Dew Point: 16°   Wind: 3mph
Humidity: 100%   Direction: 330°NNW
Pressure: 29.29"   Gusts: NA
Location:  64.68°N, 30.82°E
Report Text: EFKI 220020Z AUTO 33003KT 9999 FEW039 M09/M09 Q0992
Loading
Personal Weather Stations






























Interactive Weather Map New forecast layout! Learn more

10-Day Weather Forecast

Advertisements
Track Severe Weather on mobile